Main page
METAR-TAF:

METAR-TAF

Airports :

Kharg Island, Iran

Kharg Airport

latitude: 29-15-34N, longitude: 50-19-24E, elevation: 5 m

Current weather observation

The report was made 41 minutes ago, at 03:00 UTC
Calm wind
Temperature 26°C
Humidity 58%
Pressure 1008 hPa
Visibility: 8000 m
Few clouds at a height of 4000 ft
Overcast at a height of 10000 ft

METAR: OIBQ 290300Z 00000KT 8000 FEW040 OVC100 26/17 Q1008

Time: 08:11 (03:41 UTC)


TAF: missing

Weather observations and forecasts of more than 4000 airports (METAR and TAF reports).

The available stations are represented by yellow and red dots on the map.

Hover mouse over dot to see the name of the station.

Then click to see weather observations and forecasts.

To change the map : click on the green buttons with a black cross to zoom in, on the green button with a dash to zoom out, or on the green arrows for adjacent maps.


METAR-TAF: